Saint Hedwig, TX (78152)

7:23 PM CDT on May 03, 2015 (GMT -0500)
Sayers | | Change Station
CLOSE
Current Station
Personal Weather Station
Location: Adkins, TX
Elevation: 582 ft
Nearby Weather Stations

Elev 582 ft 29.39 °N, 98.28 °W | Updated 4 minutes ago

Clear
Clear
79.0 °F
Feels Like 81 °F
N
5.3
Wind Variable Wind from SSE
Gusts 14.5 mph

Today
High -- | Low -- °F
--% Chance of Precip.
Yesterday
High -- | Low -- °F
Precip. -- in
6:49 AM 8:10 PM
Full, 100% visible
Pressure 29.93 in
Visibility 10.0 miles
Clouds Few 4500 ft
Heat Index 81 °F
Dew Point 65 °F
Humidity 61%
Rainfall 0.00 in
Snow Depth Not available.
UV 1 out of 12
Pollen 6.70 out of 12
Air Quality Not available.
Flu Activity Sporadic
METAR KRND 032358Z AUTO 15011KT 10SM FEW045 26/17 A2994 RMK AO2 SLP133 T02550170 10286 20255 55008

More Conditions Fewer Conditions

Pressure 29.93 in
Visibility 10.0 miles
Clouds Few 4500 ft
Heat Index 81 °F
Dew Point 65 °F
Humidity 61%
Rainfall 0.00 in
Snow Depth Not available.
UV 1 out of 12
Pollen 6.70 out of 12
Air Quality Not available.
Flu Activity Sporadic
METAR KRND 032358Z AUTO 15011KT 10SM FEW045 26/17 A2994 RMK AO2 SLP133 T02550170 10286 20255 55008

More Conditions Fewer Conditions

Nepal has a long way to go to dig out and rebuild from a devastating earthquake. We have teamed up with several charities and organizations to make contributing to the relief effort as easy as possible.
How you can help: Portlight Strategies | Red Cross

10-Day Weather Forecast

Almanac

Astronomy

May. 03, 2015 Rise Set
Actual Time
Civil Twilight
Nautical Twilight
Astronomical Twilight
Moon
Length of Visible Light
Length of Day
Tomorrow will be .
, % of the Moon is Illuminated

Today's Extremes

State Highs State Lows

Community

WunderPhotos

Upload Photos

1,818,438 photos uploaded!

WunderBlogs® & News

Nearby

Air Quality

  Air Quality AQ Index Pollutant
Not available.

Snow Depth

Station Depth Elevation

Earthquake Activity

City Distance Mag. Time & Date
Minimum magnitude displayed is 2.5.

Coastal Water Temperatures

Place Temperature

Stations

Nearby Weather Stations

Station Location Temp. Windchill Dew Point Humidity Wind Precip. Elev Updated Type